createdAt,value
2022-09-25T00:00:22.258Z,4.07
2022-09-25T00:04:44.167Z,3.89
2022-09-25T00:08:46.231Z,3.83
2022-09-25T00:12:48.312Z,3.83
2022-09-25T00:16:50.095Z,3.74
2022-09-25T00:21:01.011Z,3.83
2022-09-25T00:25:03.545Z,3.80
2022-09-25T00:29:06.709Z,3.68
2022-09-25T00:33:08.482Z,3.62
2022-09-25T00:37:10.649Z,3.59
2022-09-25T00:41:12.879Z,3.50
2022-09-25T00:45:21.676Z,3.54
2022-09-25T00:49:24.638Z,3.55
2022-09-25T00:53:36.470Z,3.42
2022-09-25T00:57:40.718Z,3.30
2022-09-25T01:01:42.915Z,3.23
2022-09-25T01:05:45.564Z,3.26
2022-09-25T01:09:47.407Z,3.25
2022-09-25T01:13:49.564Z,3.06
2022-09-25T01:18:05.937Z,3.16
2022-09-25T01:22:22.178Z,2.97
2022-09-25T01:26:42.405Z,2.92
2022-09-25T01:30:48.256Z,2.96
2022-09-25T01:34:59.763Z,2.97
2022-09-25T01:39:07.755Z,2.83
2022-09-25T01:43:34.713Z,2.82
2022-09-25T01:47:38.653Z,2.80
2022-09-25T01:51:51.881Z,2.88
2022-09-25T01:56:02.569Z,2.76
2022-09-25T02:00:07.597Z,2.75
2022-09-25T02:04:29.559Z,2.74
2022-09-25T02:08:39.588Z,2.79
2022-09-25T02:12:47.969Z,2.81
2022-09-25T02:16:56.347Z,2.69
2022-09-25T02:21:14.118Z,2.59
2022-09-25T02:25:25.496Z,2.54
2022-09-25T02:29:29.684Z,2.51
2022-09-25T02:33:31.665Z,2.54
2022-09-25T02:37:33.364Z,2.45
2022-09-25T02:42:03.482Z,2.63
2022-09-25T02:46:10.683Z,2.59
2022-09-25T02:50:42.264Z,2.45
2022-09-25T02:55:02.602Z,2.34
2022-09-25T02:59:09.555Z,2.39
2022-09-25T03:03:15.006Z,2.31
2022-09-25T03:07:18.592Z,2.28
2022-09-25T03:11:23.656Z,2.27
2022-09-25T03:15:26.113Z,2.22
2022-09-25T03:19:30.886Z,2.16
2022-09-25T03:23:32.939Z,2.20
2022-09-25T03:27:34.864Z,2.19
2022-09-25T03:31:36.681Z,2.17
2022-09-25T03:35:39.875Z,2.19
2022-09-25T03:39:41.814Z,2.13
2022-09-25T03:43:43.850Z,2.14
2022-09-25T03:47:45.692Z,2.08
2022-09-25T03:51:47.574Z,2.14
2022-09-25T03:55:49.562Z,2.09
2022-09-25T03:59:51.738Z,2.03
2022-09-25T04:03:54.208Z,1.94
2022-09-25T04:07:55.897Z,1.86
2022-09-25T04:11:57.908Z,1.88
2022-09-25T04:16:01.591Z,1.90
2022-09-25T04:20:03.715Z,1.83
2022-09-25T04:24:23.883Z,1.89
2022-09-25T04:28:26.569Z,1.85
2022-09-25T04:32:46.667Z,1.85
2022-09-25T04:36:48.548Z,2.02
2022-09-25T04:40:50.730Z,1.98
2022-09-25T04:44:54.154Z,2.03
2022-09-25T04:48:55.768Z,2.08
2022-09-25T04:52:58.311Z,2.21
2022-09-25T04:56:59.962Z,2.24
2022-09-25T05:01:08.314Z,2.37
2022-09-25T05:05:11.413Z,2.47
2022-09-25T05:09:13.250Z,2.68
2022-09-25T05:13:14.853Z,2.70
2022-09-25T05:17:16.912Z,2.91
2022-09-25T05:21:18.578Z,3.08
2022-09-25T05:25:23.449Z,3.18
2022-09-25T05:29:25.429Z,3.26
2022-09-25T05:33:27.241Z,3.42
2022-09-25T05:37:28.906Z,3.52
2022-09-25T05:41:32.048Z,3.69
2022-09-25T05:45:35.674Z,3.83
2022-09-25T05:49:37.437Z,4.06
2022-09-25T05:53:39.354Z,4.26
2022-09-25T05:57:41.246Z,4.42
2022-09-25T06:01:42.924Z,4.58
2022-09-25T06:05:46.024Z,4.83
2022-09-25T06:09:47.736Z,5.08
2022-09-25T06:13:54.291Z,5.35
2022-09-25T06:17:56.875Z,5.54
2022-09-25T06:21:58.764Z,5.62
2022-09-25T06:26:02.335Z,5.83
2022-09-25T06:30:05.072Z,6.09
2022-09-25T06:34:06.846Z,6.38
2022-09-25T06:38:09.302Z,6.60
2022-09-25T06:42:11.043Z,6.90
2022-09-25T06:46:12.883Z,7.23
2022-09-25T06:50:15.101Z,7.53
2022-09-25T06:54:17.683Z,7.81
2022-09-25T06:58:22.322Z,8.11
2022-09-25T07:02:42.922Z,8.36
2022-09-25T07:06:45.490Z,8.64
2022-09-25T07:10:49.339Z,9.03
2022-09-25T07:14:50.970Z,9.29
2022-09-25T07:18:54.657Z,9.60
2022-09-25T07:23:03.970Z,9.81
2022-09-25T07:27:05.916Z,9.99
2022-09-25T07:31:17.515Z,10.27
2022-09-25T07:35:19.907Z,10.49
2022-09-25T07:39:21.507Z,10.67
2022-09-25T07:43:23.596Z,10.94
2022-09-25T07:47:25.287Z,11.11
2022-09-25T07:51:27.114Z,11.25
2022-09-25T07:55:29.268Z,11.35
2022-09-25T07:59:31.103Z,11.60
2022-09-25T08:03:32.945Z,11.86
2022-09-25T08:07:34.857Z,12.10
2022-09-25T08:11:36.807Z,12.25
2022-09-25T08:15:38.770Z,12.48
2022-09-25T08:19:40.616Z,12.78
2022-09-25T08:23:47.693Z,12.82
2022-09-25T08:27:49.840Z,12.72
2022-09-25T08:31:51.792Z,12.32
2022-09-25T08:35:58.363Z,12.09
2022-09-25T08:40:00.860Z,11.89
2022-09-25T08:44:28.129Z,12.08
2022-09-25T08:48:53.668Z,11.94
2022-09-25T08:53:07.350Z,11.98
2022-09-25T08:57:29.462Z,12.08
2022-09-25T09:01:49.809Z,12.19
2022-09-25T09:06:06.995Z,12.26
2022-09-25T09:10:23.586Z,12.36
2022-09-25T09:14:30.885Z,12.55
2022-09-25T09:18:37.768Z,12.88
2022-09-25T09:22:45.378Z,13.00
2022-09-25T09:27:19.382Z,13.44
2022-09-25T09:31:33.826Z,14.13
2022-09-25T09:35:53.654Z,14.23
2022-09-25T09:40:20.545Z,14.33
2022-09-25T09:44:28.584Z,14.43
2022-09-25T09:48:59.508Z,14.79
2022-09-25T09:53:05.800Z,14.99
2022-09-25T09:57:26.885Z,15.23
2022-09-25T10:01:42.931Z,15.58
2022-09-25T10:05:49.963Z,15.62
2022-09-25T10:09:54.260Z,15.76
2022-09-25T10:14:00.065Z,15.77
2022-09-25T10:18:03.593Z,16.04
2022-09-25T10:22:16.879Z,15.99
2022-09-25T10:26:33.251Z,16.25
2022-09-25T10:30:35.192Z,16.26
2022-09-25T10:34:37.022Z,16.44
2022-09-25T10:38:53.478Z,16.23
2022-09-25T10:43:18.671Z,16.31
2022-09-25T10:47:39.171Z,16.33
2022-09-25T10:52:01.857Z,16.68
2022-09-25T10:56:06.945Z,16.85
2022-09-25T11:00:24.217Z,16.80
2022-09-25T11:04:32.449Z,17.04
2022-09-25T11:08:38.897Z,17.01
2022-09-25T11:12:45.264Z,17.13
2022-09-25T11:16:57.943Z,17.19
2022-09-25T11:21:04.639Z,17.11
2022-09-25T11:25:17.515Z,17.11
2022-09-25T11:29:41.106Z,17.18
2022-09-25T11:33:56.232Z,17.17
2022-09-25T11:38:17.129Z,16.97
2022-09-25T11:42:35.559Z,17.23
2022-09-25T11:46:46.899Z,17.37
2022-09-25T11:51:01.682Z,17.27
2022-09-25T11:55:23.071Z,17.56
2022-09-25T11:59:39.559Z,17.91
2022-09-25T12:04:20.301Z,17.80
2022-09-25T12:08:49.017Z,17.92
2022-09-25T12:13:15.177Z,17.92
2022-09-25T12:17:36.057Z,18.01
2022-09-25T12:22:05.488Z,17.94
2022-09-25T12:26:25.918Z,17.96
2022-09-25T12:30:38.824Z,17.93
2022-09-25T12:34:55.749Z,18.17
2022-09-25T12:39:08.808Z,18.07
2022-09-25T12:43:33.514Z,18.24
2022-09-25T12:47:46.576Z,18.23
2022-09-25T12:51:51.333Z,18.27
2022-09-25T12:55:59.715Z,18.52
2022-09-25T13:00:25.761Z,18.49
2022-09-25T13:05:02.315Z,18.28
2022-09-25T13:09:18.354Z,18.19
2022-09-25T13:13:24.804Z,18.28
2022-09-25T13:17:26.642Z,18.26
2022-09-25T13:21:35.761Z,18.02
2022-09-25T13:25:47.512Z,17.95
2022-09-25T13:29:57.013Z,17.84
2022-09-25T13:34:01.661Z,17.45
2022-09-25T13:38:36.008Z,17.13
2022-09-25T13:42:42.231Z,16.85
2022-09-25T13:46:44.052Z,16.67
2022-09-25T13:50:47.160Z,16.75
2022-09-25T13:54:49.064Z,16.71
2022-09-25T13:59:13.864Z,16.75
2022-09-25T14:03:44.151Z,16.84
2022-09-25T14:07:49.617Z,16.83
2022-09-25T14:12:04.077Z,16.78
2022-09-25T14:16:10.216Z,16.64
2022-09-25T14:20:32.420Z,16.67
2022-09-25T14:24:35.506Z,16.67
2022-09-25T14:28:47.671Z,16.52
2022-09-25T14:33:25.880Z,16.39
2022-09-25T14:37:52.543Z,16.19
2022-09-25T14:42:18.734Z,16.14
2022-09-25T14:46:22.419Z,15.96
2022-09-25T14:50:27.136Z,15.74
2022-09-25T14:54:35.946Z,15.62
2022-09-25T14:58:42.513Z,15.52
2022-09-25T15:02:46.802Z,15.38
2022-09-25T15:06:59.491Z,15.31
2022-09-25T15:11:12.249Z,15.29
2022-09-25T15:15:14.276Z,15.25
2022-09-25T15:19:22.762Z,15.24
2022-09-25T15:23:24.691Z,15.15
2022-09-25T15:27:28.402Z,15.02
2022-09-25T15:31:37.408Z,14.83
2022-09-25T15:35:39.489Z,14.75
2022-09-25T15:39:42.718Z,14.55
2022-09-25T15:43:44.862Z,14.40
2022-09-25T15:47:46.478Z,14.39
2022-09-25T15:51:58.248Z,14.21
2022-09-25T15:56:22.806Z,14.17
2022-09-25T16:00:44.902Z,14.03
2022-09-25T16:04:51.939Z,13.93
2022-09-25T16:09:09.159Z,13.85
2022-09-25T16:13:22.754Z,13.57
2022-09-25T16:17:29.439Z,13.53
2022-09-25T16:21:33.929Z,13.47
2022-09-25T16:25:42.498Z,13.42
2022-09-25T16:29:44.965Z,13.28
2022-09-25T16:33:50.701Z,13.15
2022-09-25T16:37:53.164Z,13.13
2022-09-25T16:41:55.820Z,13.06
2022-09-25T16:46:00.534Z,12.97
2022-09-25T16:50:02.722Z,12.77
2022-09-25T16:54:09.981Z,12.76
2022-09-25T16:58:12.431Z,12.72
2022-09-25T17:02:37.045Z,12.58
2022-09-25T17:06:40.927Z,12.53
2022-09-25T17:10:42.838Z,12.41
2022-09-25T17:14:44.842Z,12.27
2022-09-25T17:18:46.548Z,12.16
2022-09-25T17:22:49.267Z,12.09
2022-09-25T17:26:54.266Z,12.08
2022-09-25T17:30:56.226Z,12.02
2022-09-25T17:35:00.626Z,12.02
2022-09-25T17:39:02.485Z,11.97
2022-09-25T17:43:04.246Z,11.90
2022-09-25T17:47:06.379Z,11.96
2022-09-25T17:51:16.306Z,11.94
2022-09-25T17:55:20.509Z,11.84
2022-09-25T17:59:22.294Z,11.78
2022-09-25T18:03:24.203Z,11.78
2022-09-25T18:07:29.912Z,11.71
2022-09-25T18:11:34.672Z,11.67
2022-09-25T18:15:42.123Z,11.63
2022-09-25T18:20:02.770Z,11.57
2022-09-25T18:24:04.706Z,11.57
2022-09-25T18:28:07.133Z,11.54
2022-09-25T18:32:08.779Z,11.49
2022-09-25T18:36:10.871Z,11.49
2022-09-25T18:40:14.632Z,11.47
2022-09-25T18:44:17.900Z,11.47
2022-09-25T18:48:19.952Z,11.47
2022-09-25T18:52:21.919Z,11.51
2022-09-25T18:56:23.679Z,11.52
2022-09-25T19:00:26.786Z,11.50
2022-09-25T19:04:28.753Z,11.43
2022-09-25T19:08:31.297Z,11.43
2022-09-25T19:12:33.607Z,11.41
2022-09-25T19:16:38.254Z,11.41
2022-09-25T19:20:54.505Z,11.38
2022-09-25T19:24:56.797Z,11.32
2022-09-25T19:29:00.275Z,11.38
2022-09-25T19:33:02.312Z,11.34
2022-09-25T19:37:04.532Z,11.13
2022-09-25T19:41:15.689Z,11.30
2022-09-25T19:45:18.635Z,11.32
2022-09-25T19:49:20.756Z,11.24
2022-09-25T19:53:22.612Z,11.12
2022-09-25T19:57:24.523Z,11.07
2022-09-25T20:01:30.161Z,10.86
2022-09-25T20:05:41.262Z,10.81
2022-09-25T20:09:44.516Z,10.55
2022-09-25T20:13:48.802Z,10.43
2022-09-25T20:17:50.522Z,10.34
2022-09-25T20:21:53.029Z,10.25
2022-09-25T20:25:55.240Z,10.10
2022-09-25T20:29:57.103Z,10.04
2022-09-25T20:33:58.831Z,10.04
2022-09-25T20:38:00.749Z,10.08
2022-09-25T20:42:02.411Z,10.02
2022-09-25T20:46:09.794Z,9.90
2022-09-25T20:50:11.542Z,9.86
2022-09-25T20:54:13.717Z,9.68
2022-09-25T20:58:15.625Z,9.56
2022-09-25T21:02:17.721Z,9.45
2022-09-25T21:06:22.883Z,9.33
2022-09-25T21:10:24.756Z,9.23
2022-09-25T21:14:28.478Z,9.20
2022-09-25T21:18:31.735Z,9.23
2022-09-25T21:22:33.434Z,9.23
2022-09-25T21:26:35.455Z,9.14
2022-09-25T21:30:38.608Z,9.19
2022-09-25T21:34:40.528Z,9.21
2022-09-25T21:38:43.358Z,9.25
2022-09-25T21:42:45.166Z,9.19
2022-09-25T21:46:47.070Z,9.23
2022-09-25T21:50:53.983Z,9.08
2022-09-25T21:54:55.624Z,9.06
2022-09-25T21:58:58.592Z,8.91
2022-09-25T22:03:00.305Z,8.81
2022-09-25T22:07:02.477Z,8.73
2022-09-25T22:11:05.949Z,8.71
2022-09-25T22:15:09.358Z,8.47
2022-09-25T22:19:30.077Z,8.36
2022-09-25T22:23:32.038Z,8.23
2022-09-25T22:27:34.297Z,8.26
2022-09-25T22:31:38.587Z,8.05
2022-09-25T22:35:40.318Z,7.83
2022-09-25T22:39:42.390Z,7.72
2022-09-25T22:43:44.332Z,7.76
2022-09-25T22:47:46.148Z,7.69
2022-09-25T22:51:48.309Z,7.68
2022-09-25T22:55:50.693Z,7.64
2022-09-25T22:59:52.366Z,7.52
2022-09-25T23:03:59.067Z,7.44
2022-09-25T23:08:00.853Z,7.42
2022-09-25T23:12:03.102Z,7.30
2022-09-25T23:16:07.805Z,7.30
2022-09-25T23:20:09.824Z,7.23
2022-09-25T23:24:14.293Z,7.18
2022-09-25T23:28:16.405Z,6.99
2022-09-25T23:32:20.010Z,6.89
2022-09-25T23:36:24.862Z,6.82
2022-09-25T23:40:26.663Z,6.93
2022-09-25T23:44:28.479Z,6.81
2022-09-25T23:48:30.131Z,6.78
2022-09-25T23:52:32.065Z,6.68
2022-09-25T23:56:35.314Z,6.68
